ilmateenistus.ee keskkonnaagentuur.ee
EETN Tallinna lennuväli
FTEO31 EETN 291100
TAF EETN 291105Z 2912/3012 35010KT 9999 SCT030 BECMG 2917/2919
    VRB02KT=

METAR EETN 291650Z 07011KT CAVOK 14/04 Q1007 NOSIG=
Tallinna lennuväli
EEKA Kärdla lennuväli
FCEO32 EETN 291200
TAF EEKA 291200Z 2913/2919 34015KT 9999 SCT030=

METAR EEKA 291650Z NIL=
Kärdla lennuväli
EEKE Kuressaare lennuväli
FCEO32 EETN 291400
TAF EEKE 291400Z 2915/2921 33015KT CAVOK BECMG 2918/2920 35005KT=

METAR EEKE 291650Z NIL=
Kuressaare lennuväli
EEPU Pärnu lennuväli
METAR EEPU 291650Z NIL=
Pärnu lennuväli
EETU Tartu lennuväli
FCEO32 EETN 291600 RRA
TAF EETU 291615Z 2917/2923 06008KT 9999 BKN030 TEMPO 2917/2919
    SCT025CB BKN030 PROB40 TEMPO 2920/2923 BKN008=

METAR EETU 291650Z 06010KT 9999 FEW035 16/08 Q1006=
Tartu lennuväli
EEEI Ämari lennuväli
METAR EEEI 291650Z 04010KT CAVOK 16/07 Q1007 NOSIG=
Ämari lennuväli